Strona główna
METAR-TAF:

METAR-TAF

Lotnisko :

Port lotniczy Ipoh

Ipoh, Malezja

Szerokość geograficzna: 04-34-09N, Długość geograficzna: 101-05-35E, wysokość: 40 m

Aktualna obserwacja pogody

Raport powstał 23 minut temu, godzina 15:00 UTC
Wiatr 3 kt z kierunków zmiennych
Temperatura 26°C
Wilgotność 94%
Ciśnienie 1010 hPa
Widzialność: 8000 m
Mało chmury na wysokości 500 ft

METAR: WMKI 171500Z VRB03KT 8000 FEW005 26/25 Q1010

czas: 23:23 (15:23 UTC)

Prognoza

Raport powstał 4 godziny i 23 minut temu, godzina 11:00 UTC
Prognoza ważna od 17 godzina 12 UTC do 18 godzina 12 UTC
Wiatr 3 kt z kierunków zmiennych
Widzialność: 8000 m
Mało chmury na wysokości 1000 ft

TAF: WMKI 171100Z 1712/1812 VRB03KT 8000 FEW010

Obserwacja i prognoza pogody dla ponad 4000 lotnisk (raport METAR i TAF).

Dostępne stacje oznaczono żółtymi i czerwonymi punktami na mapie.

Najedź kursorem aby zobaczyć nazwę stacji.

Kliknij aby zobaczyć obserwacje i prognozy pogody.

Aby zmienić mapę: kliknij na zielony przycisk z czarnym krzyżykiem, aby powiększyć; na zielony przycisk z myślnikiem, aby pomniejszyć; na zielone strzałki, aby przejść do map sąsiednich.


METAR-TAF: